createdAt,value
2022-12-14T00:00:42.746Z,96917.78
2022-12-14T00:03:16.677Z,96911.59
2022-12-14T00:05:49.183Z,96919.19
2022-12-14T00:08:21.883Z,96911.31
2022-12-14T00:10:53.964Z,96902.88
2022-12-14T00:13:26.669Z,96909.31
2022-12-14T00:15:59.081Z,96922.09
2022-12-14T00:18:30.966Z,96925.72
2022-12-14T00:21:10.879Z,96924.00
2022-12-14T00:23:45.499Z,96923.53
2022-12-14T00:26:20.437Z,96920.66
2022-12-14T00:28:55.614Z,96914.53
2022-12-14T00:31:28.169Z,96895.19
2022-12-14T00:34:01.671Z,96902.03
2022-12-14T00:36:36.416Z,96902.38
2022-12-14T00:39:08.766Z,96906.41
2022-12-14T00:41:40.696Z,96910.16
2022-12-14T00:44:13.963Z,96902.50
2022-12-14T00:46:45.913Z,96899.75
2022-12-14T00:52:11.428Z,96891.09
2022-12-14T00:54:45.047Z,96891.00
2022-12-14T00:57:17.396Z,96879.03
2022-12-14T00:59:49.730Z,96885.56
2022-12-14T01:02:22.941Z,96862.00
2022-12-14T01:04:55.307Z,96869.28
2022-12-14T01:07:27.598Z,96868.69
2022-12-14T01:09:59.470Z,96871.88
2022-12-14T01:12:31.795Z,96857.41
2022-12-14T01:15:05.020Z,96859.44
2022-12-14T01:17:36.899Z,96853.00
2022-12-14T01:20:11.133Z,96846.78
2022-12-14T01:22:43.418Z,96848.00
2022-12-14T01:25:15.390Z,96844.72
2022-12-14T01:27:48.564Z,96849.88
2022-12-14T01:30:20.756Z,96843.50
2022-12-14T01:32:53.648Z,96833.50
2022-12-14T01:35:25.607Z,96834.19
2022-12-14T01:37:58.827Z,96835.34
2022-12-14T01:40:30.982Z,96834.47
2022-12-14T01:43:03.801Z,96825.00
2022-12-14T01:45:36.072Z,96823.06
2022-12-14T01:48:13.917Z,96822.56
2022-12-14T01:50:46.233Z,96817.03
2022-12-14T01:53:22.971Z,96808.63
2022-12-14T01:55:56.352Z,96828.97
2022-12-14T01:58:29.886Z,96825.50
2022-12-14T02:01:02.745Z,96830.66
2022-12-14T02:03:41.049Z,96829.63
2022-12-14T02:06:22.039Z,96842.06
2022-12-14T02:08:56.888Z,96840.19
2022-12-14T02:11:52.182Z,96849.16
2022-12-14T02:14:25.182Z,96841.47
2022-12-14T02:16:58.015Z,96831.94
2022-12-14T02:19:32.456Z,96841.94
2022-12-14T02:22:58.410Z,96847.41
2022-12-14T02:26:03.909Z,96854.59
2022-12-14T02:29:24.244Z,96843.81
2022-12-14T02:32:29.741Z,96835.53
2022-12-14T02:35:22.320Z,96833.06
2022-12-14T02:38:23.621Z,96817.91
2022-12-14T02:41:23.229Z,96829.09
2022-12-14T02:44:41.865Z,96820.88
2022-12-14T02:47:36.888Z,96836.38
2022-12-14T02:50:34.298Z,96826.38
2022-12-14T02:53:35.889Z,96832.34
2022-12-14T02:56:13.072Z,96826.03
2022-12-14T02:58:50.954Z,96830.09
2022-12-14T03:01:27.867Z,96832.09
2022-12-14T03:04:01.683Z,96825.84
2022-12-14T03:06:33.694Z,96814.72
2022-12-14T03:09:14.575Z,96811.00
2022-12-14T03:11:56.280Z,96807.03
2022-12-14T03:14:40.361Z,96803.19
2022-12-14T03:17:26.226Z,96802.41
2022-12-14T03:20:08.320Z,96809.75
2022-12-14T03:22:49.784Z,96809.09
2022-12-14T03:25:48.659Z,96797.97
2022-12-14T03:28:29.476Z,96797.09
2022-12-14T03:31:13.972Z,96789.44
2022-12-14T03:33:48.983Z,96784.16
2022-12-14T03:36:41.789Z,96787.94
2022-12-14T03:39:27.593Z,96781.41
2022-12-14T03:42:12.545Z,96774.16
2022-12-14T03:44:56.809Z,96762.63
2022-12-14T03:47:55.036Z,96782.31
2022-12-14T03:51:02.944Z,96787.84
2022-12-14T03:54:03.867Z,96791.91
2022-12-14T03:56:49.692Z,96774.84
2022-12-14T03:59:37.865Z,96772.31
2022-12-14T04:02:23.829Z,96784.25
2022-12-14T04:05:09.212Z,96768.13
2022-12-14T04:08:11.635Z,96764.34
2022-12-14T04:17:01.194Z,96747.56
2022-12-14T04:19:54.343Z,96744.44
2022-12-14T04:22:33.165Z,96729.59
2022-12-14T04:25:36.442Z,96724.06
2022-12-14T04:28:41.216Z,96721.94
2022-12-14T04:31:18.776Z,96712.88
2022-12-14T04:33:55.187Z,96712.13
2022-12-14T04:36:40.498Z,96689.44
2022-12-14T04:39:23.883Z,96702.31
2022-12-14T04:42:01.301Z,96688.84
2022-12-14T04:44:39.375Z,96680.22
2022-12-14T04:47:15.932Z,96686.97
2022-12-14T04:49:57.317Z,96680.81
2022-12-14T04:52:51.927Z,96678.13
2022-12-14T04:55:28.631Z,96665.53
2022-12-14T04:58:20.520Z,96650.34
2022-12-14T05:01:08.743Z,96652.09
2022-12-14T05:04:12.483Z,96642.28
2022-12-14T05:06:50.926Z,96643.13
2022-12-14T05:09:34.868Z,96634.94
2022-12-14T05:12:41.385Z,96630.88
2022-12-14T05:15:23.835Z,96640.88
2022-12-14T05:17:56.146Z,96644.84
2022-12-14T05:20:28.835Z,96644.84
2022-12-14T05:23:01.147Z,96646.88
2022-12-14T05:25:33.078Z,96649.47
2022-12-14T05:28:05.770Z,96649.53
2022-12-14T05:30:38.483Z,96665.63
2022-12-14T05:33:20.337Z,96664.88
2022-12-14T05:35:52.812Z,96666.41
2022-12-14T05:38:25.105Z,96663.41
2022-12-14T05:40:57.578Z,96662.13
2022-12-14T05:43:30.538Z,96661.91
2022-12-14T05:46:04.945Z,96650.31
2022-12-14T05:48:37.887Z,96650.72
2022-12-14T05:51:13.203Z,96648.94
2022-12-14T05:53:45.941Z,96651.38
2022-12-14T05:56:17.800Z,96650.78
2022-12-14T05:58:51.326Z,96655.28
2022-12-14T06:01:23.947Z,96645.56
2022-12-14T06:03:56.353Z,96633.28
2022-12-14T06:06:29.175Z,96637.06
2022-12-14T06:09:01.516Z,96642.72
2022-12-14T06:11:37.962Z,96629.06
2022-12-14T06:14:10.982Z,96623.34
2022-12-14T06:16:46.725Z,96608.53
2022-12-14T06:19:19.757Z,96611.31
2022-12-14T06:21:52.105Z,96617.22
2022-12-14T06:24:24.403Z,96602.28
2022-12-14T06:26:57.076Z,96597.13
2022-12-14T06:29:29.015Z,96595.28
2022-12-14T06:32:02.296Z,96598.50
2022-12-14T06:34:39.078Z,96590.25
2022-12-14T06:37:13.733Z,96601.84
2022-12-14T06:39:52.624Z,96597.81
2022-12-14T06:42:26.500Z,96606.19
2022-12-14T06:44:59.250Z,96597.31
2022-12-14T06:47:31.675Z,96597.75
2022-12-14T06:50:03.831Z,96593.88
2022-12-14T06:52:37.834Z,96584.59
2022-12-14T06:55:10.152Z,96591.31
2022-12-14T06:57:42.163Z,96590.34
2022-12-14T07:00:15.247Z,96594.09
2022-12-14T07:02:48.143Z,96590.19
2022-12-14T07:05:21.047Z,96590.81
2022-12-14T07:07:53.357Z,96594.63
2022-12-14T07:10:25.687Z,96598.66
2022-12-14T07:12:57.556Z,96606.34
2022-12-14T07:15:30.218Z,96608.50
2022-12-14T07:18:02.099Z,96596.63
2022-12-14T07:20:34.807Z,96605.72
2022-12-14T07:23:07.104Z,96597.41
2022-12-14T07:25:38.965Z,96595.56
2022-12-14T07:28:11.679Z,96601.50
2022-12-14T07:30:43.691Z,96594.44
2022-12-14T07:33:18.721Z,96595.66
2022-12-14T07:35:51.258Z,96587.25
2022-12-14T07:38:23.437Z,96591.09
2022-12-14T07:41:06.704Z,96585.94
2022-12-14T07:43:40.033Z,96587.84
2022-12-14T07:46:17.653Z,96591.09
2022-12-14T07:48:53.364Z,96595.56
2022-12-14T07:51:32.336Z,96598.06
2022-12-14T07:54:06.979Z,96603.91
2022-12-14T07:56:41.897Z,96609.56
2022-12-14T07:59:17.099Z,96601.13
2022-12-14T08:01:49.069Z,96606.34
2022-12-14T08:04:22.052Z,96609.44
2022-12-14T08:06:54.979Z,96605.66
2022-12-14T08:09:27.282Z,96605.28
2022-12-14T08:12:00.474Z,96606.47
2022-12-14T08:14:32.386Z,96604.63
2022-12-14T08:17:05.122Z,96606.72
2022-12-14T08:19:37.445Z,96614.69
2022-12-14T08:22:10.186Z,96601.31
2022-12-14T08:24:42.206Z,96598.91
2022-12-14T08:27:22.047Z,96600.50
2022-12-14T08:29:53.927Z,96597.88
2022-12-14T08:32:32.511Z,96597.72
2022-12-14T08:35:07.064Z,96603.69
2022-12-14T08:37:45.794Z,96592.47
2022-12-14T08:40:20.499Z,96592.97
2022-12-14T08:42:52.776Z,96582.63
2022-12-14T08:45:25.457Z,96588.97
2022-12-14T08:47:58.858Z,96585.34
2022-12-14T08:50:31.240Z,96584.22
2022-12-14T08:53:03.601Z,96579.03
2022-12-14T08:55:38.717Z,96582.56
2022-12-14T08:58:13.332Z,96592.31
2022-12-14T09:00:45.610Z,96606.06
2022-12-14T09:03:20.749Z,96584.63
2022-12-14T09:05:52.692Z,96576.16
2022-12-14T09:08:25.415Z,96568.00
2022-12-14T09:10:57.289Z,96580.75
2022-12-14T09:13:30.559Z,96579.91
2022-12-14T09:16:16.033Z,96595.66
2022-12-14T09:18:49.630Z,96607.31
2022-12-14T09:21:22.707Z,96612.34
2022-12-14T09:23:59.215Z,96620.03
2022-12-14T09:26:32.279Z,96610.06
2022-12-14T09:29:05.164Z,96634.19
2022-12-14T09:31:37.061Z,96629.84
2022-12-14T09:34:10.993Z,96626.38
2022-12-14T09:36:42.850Z,96617.47
2022-12-14T09:39:16.178Z,96614.75
2022-12-14T09:42:10.239Z,96617.84
2022-12-14T09:45:01.485Z,96623.97
2022-12-14T09:47:48.331Z,96615.28
2022-12-14T09:50:22.928Z,96603.81
2022-12-14T09:52:59.909Z,96590.03
2022-12-14T09:55:38.184Z,96591.59
2022-12-14T09:58:24.466Z,96585.94
2022-12-14T10:01:22.689Z,96585.41
2022-12-14T10:04:29.337Z,96584.47
2022-12-14T10:07:28.396Z,96583.59
2022-12-14T10:10:26.617Z,96594.47
2022-12-14T10:13:40.011Z,96595.28
2022-12-14T10:16:44.845Z,96582.78
2022-12-14T10:19:35.009Z,96568.63
2022-12-14T10:22:13.776Z,96563.31
2022-12-14T10:25:06.702Z,96569.56
2022-12-14T10:28:10.839Z,96554.38
2022-12-14T10:30:36.057Z,96543.66
2022-12-14T10:33:29.936Z,96559.50
2022-12-14T10:36:38.041Z,96548.72
2022-12-14T10:39:44.029Z,96545.53
2022-12-14T10:43:20.188Z,96535.81
2022-12-14T10:45:59.638Z,96546.69
2022-12-14T10:49:13.872Z,96558.66
2022-12-14T10:51:50.519Z,96559.97
2022-12-14T10:54:29.849Z,96556.03
2022-12-14T10:57:02.311Z,96553.19
2022-12-14T10:59:44.540Z,96564.94
2022-12-14T11:02:24.143Z,96561.00
2022-12-14T11:05:09.404Z,96557.00
2022-12-14T11:07:49.854Z,96558.91
2022-12-14T11:10:27.784Z,96558.94
2022-12-14T11:13:17.215Z,96569.25
2022-12-14T11:15:52.399Z,96558.88
2022-12-14T11:18:31.963Z,96568.59
2022-12-14T11:21:06.362Z,96570.63
2022-12-14T11:23:48.402Z,96565.97
2022-12-14T11:26:30.853Z,96573.66
2022-12-14T11:29:07.359Z,96572.56
2022-12-14T11:31:44.914Z,96573.63
2022-12-14T11:34:34.923Z,96556.34
2022-12-14T11:37:22.285Z,96558.38
2022-12-14T11:40:23.292Z,96555.03
2022-12-14T11:43:03.488Z,96544.59
2022-12-14T11:45:37.724Z,96547.81
2022-12-14T11:48:15.982Z,96552.41
2022-12-14T11:50:49.865Z,96562.22
2022-12-14T11:53:24.024Z,96568.03
2022-12-14T11:56:17.949Z,96564.75
2022-12-14T11:58:54.714Z,96579.56
2022-12-14T12:01:27.366Z,96594.47
2022-12-14T12:04:01.439Z,96606.63
2022-12-14T12:06:33.563Z,96605.28
2022-12-14T12:09:29.624Z,96620.19
2022-12-14T12:12:02.342Z,96598.19
2022-12-14T12:14:38.089Z,96619.72
2022-12-14T12:17:35.973Z,96649.59
2022-12-14T12:20:40.804Z,96631.41
2022-12-14T12:23:45.230Z,96614.84
2022-12-14T12:26:25.173Z,96606.56
2022-12-14T12:29:14.642Z,96614.94
2022-12-14T12:32:01.746Z,96611.84
2022-12-14T12:34:46.274Z,96619.56
2022-12-14T12:37:30.603Z,96626.06
2022-12-14T12:40:21.027Z,96628.53
2022-12-14T12:42:59.008Z,96633.22
2022-12-14T12:45:36.110Z,96633.16
2022-12-14T12:48:28.697Z,96630.63
2022-12-14T12:51:12.404Z,96627.97
2022-12-14T12:54:13.955Z,96632.56
2022-12-14T12:56:52.450Z,96630.41
2022-12-14T12:59:45.742Z,96633.91
2022-12-14T13:02:42.990Z,96636.00
2022-12-14T13:05:45.631Z,96640.63
2022-12-14T13:08:26.500Z,96636.16
2022-12-14T13:11:27.805Z,96636.75
2022-12-14T13:14:13.578Z,96632.06
2022-12-14T13:16:47.653Z,96624.63
2022-12-14T13:19:50.609Z,96628.09
2022-12-14T13:22:31.213Z,96642.75
2022-12-14T13:25:14.959Z,96631.06
2022-12-14T13:28:18.604Z,96641.66
2022-12-14T13:31:17.477Z,96644.91
2022-12-14T13:34:14.373Z,96652.00
2022-12-14T13:37:07.183Z,96649.91
2022-12-14T13:39:56.740Z,96650.47
2022-12-14T13:43:05.932Z,96635.59
2022-12-14T13:45:46.189Z,96635.03
2022-12-14T13:48:36.586Z,96636.44
2022-12-14T13:51:28.210Z,96642.31
2022-12-14T13:54:05.200Z,96644.81
2022-12-14T13:56:39.840Z,96649.97
2022-12-14T13:59:39.524Z,96655.78
2022-12-14T14:02:29.788Z,96657.75
2022-12-14T14:05:24.721Z,96672.00
2022-12-14T14:08:41.075Z,96678.38
2022-12-14T14:11:39.964Z,96687.97
2022-12-14T14:14:25.745Z,96688.56
2022-12-14T14:17:04.229Z,96694.41
2022-12-14T14:19:41.725Z,96701.63
2022-12-14T14:22:23.904Z,96693.59
2022-12-14T14:25:09.546Z,96705.31
2022-12-14T14:27:50.707Z,96701.97
2022-12-14T14:30:37.588Z,96698.63
2022-12-14T14:33:47.737Z,96693.91
2022-12-14T14:36:27.490Z,96689.84
2022-12-14T14:39:46.635Z,96686.47
2022-12-14T14:42:18.485Z,96699.38
2022-12-14T14:44:57.246Z,96715.78
2022-12-14T14:47:42.083Z,96724.78
2022-12-14T14:50:13.941Z,96730.94
2022-12-14T14:53:10.561Z,96730.38
2022-12-14T14:55:53.769Z,96724.91
2022-12-14T14:58:39.232Z,96730.84
2022-12-14T15:01:29.501Z,96737.44
2022-12-14T15:04:06.493Z,96739.56
2022-12-14T15:06:42.296Z,96739.59
2022-12-14T15:09:26.218Z,96753.75
2022-12-14T15:12:39.346Z,96764.81
2022-12-14T15:15:47.273Z,96770.56
2022-12-14T15:18:30.747Z,96767.19
2022-12-14T15:21:22.613Z,96771.78
2022-12-14T15:23:56.058Z,96770.47
2022-12-14T15:26:33.092Z,96780.25
2022-12-14T15:29:05.976Z,96799.03
2022-12-14T15:31:40.844Z,96799.63
2022-12-14T15:34:18.546Z,96802.59
2022-12-14T15:36:51.651Z,96803.72
2022-12-14T15:39:38.598Z,96816.47
2022-12-14T15:42:16.736Z,96821.78
2022-12-14T15:44:54.734Z,96818.47
2022-12-14T15:47:29.961Z,96818.56
2022-12-14T15:50:32.890Z,96826.94
2022-12-14T15:53:49.936Z,96820.34
2022-12-14T15:56:34.666Z,96842.38
2022-12-14T15:59:29.739Z,96835.97
2022-12-14T16:02:15.730Z,96836.41
2022-12-14T16:04:49.342Z,96831.66
2022-12-14T16:07:31.381Z,96837.56
2022-12-14T16:10:18.818Z,96840.00
2022-12-14T16:12:56.340Z,96841.38
2022-12-14T16:15:29.603Z,96830.38
2022-12-14T16:18:03.437Z,96831.66
2022-12-14T16:20:38.537Z,96831.56
2022-12-14T16:23:13.443Z,96835.56
2022-12-14T16:25:58.483Z,96834.66
2022-12-14T16:28:37.152Z,96834.19
2022-12-14T16:31:24.550Z,96832.38
2022-12-14T16:34:15.781Z,96837.38
2022-12-14T16:37:14.644Z,96836.88
2022-12-14T16:39:49.573Z,96851.41
2022-12-14T16:42:27.074Z,96846.31
2022-12-14T16:44:58.984Z,96854.06
2022-12-14T16:47:34.358Z,96854.38
2022-12-14T16:50:55.976Z,96847.13
2022-12-14T16:53:29.900Z,96856.19
2022-12-14T16:56:16.379Z,96864.22
2022-12-14T16:58:54.464Z,96864.78
2022-12-14T17:01:27.496Z,96856.47
2022-12-14T17:04:04.681Z,96877.84
2022-12-14T17:06:55.648Z,96883.09
2022-12-14T17:09:30.758Z,96887.00
2022-12-14T17:12:14.496Z,96880.31
2022-12-14T17:14:50.002Z,96884.81
2022-12-14T17:17:34.003Z,96890.06
2022-12-14T17:20:14.422Z,96888.09
2022-12-14T17:22:49.724Z,96894.69
2022-12-14T17:25:22.424Z,96900.72
2022-12-14T17:27:54.658Z,96905.44
2022-12-14T17:30:28.830Z,96899.19
2022-12-14T17:33:00.855Z,96908.78
2022-12-14T17:35:33.294Z,96903.78
2022-12-14T17:38:14.491Z,96907.03
2022-12-14T17:40:49.500Z,96894.56
2022-12-14T17:43:26.723Z,96894.47
2022-12-14T17:46:01.514Z,96894.41
2022-12-14T17:48:33.570Z,96903.75
2022-12-14T17:51:06.236Z,96895.66
2022-12-14T17:53:38.364Z,96900.22
2022-12-14T17:56:10.764Z,96894.03
2022-12-14T17:58:45.285Z,96887.53
2022-12-14T18:01:23.064Z,96889.53
2022-12-14T18:03:55.209Z,96889.84
2022-12-14T18:06:27.754Z,96896.53
2022-12-14T18:08:59.662Z,96904.34
2022-12-14T18:11:32.108Z,96900.81
2022-12-14T18:14:04.066Z,96904.66
2022-12-14T18:16:36.716Z,96906.06
2022-12-14T18:19:08.753Z,96908.59
2022-12-14T18:21:41.169Z,96901.84
2022-12-14T18:24:15.306Z,96900.78
2022-12-14T18:26:47.993Z,96893.38
2022-12-14T18:29:21.231Z,96897.38
2022-12-14T18:31:53.814Z,96892.75
2022-12-14T18:34:25.822Z,96884.38
2022-12-14T18:36:58.344Z,96890.78
2022-12-14T18:39:30.297Z,96894.69
2022-12-14T18:42:02.932Z,96904.44
2022-12-14T18:44:34.910Z,96901.19
2022-12-14T18:47:33.546Z,96915.34
2022-12-14T18:49:59.810Z,96915.38
2022-12-14T18:52:32.303Z,96912.34
2022-12-14T18:55:06.537Z,96923.25
2022-12-14T18:57:39.050Z,96928.72
2022-12-14T19:00:14.852Z,96928.13
2022-12-14T19:02:50.208Z,96947.50
2022-12-14T19:05:26.101Z,96948.25
2022-12-14T19:08:00.605Z,96944.19
2022-12-14T19:10:33.143Z,96941.69
2022-12-14T19:13:06.326Z,96935.19
2022-12-14T19:15:38.510Z,96930.81
2022-12-14T19:18:11.077Z,96926.22
2022-12-14T19:20:43.041Z,96912.22
2022-12-14T19:23:17.759Z,96912.63
2022-12-14T19:25:49.771Z,96915.06
2022-12-14T19:28:37.628Z,96926.63
2022-12-14T19:31:11.200Z,96914.09
2022-12-14T19:33:43.645Z,96907.19
2022-12-14T19:36:16.678Z,96910.44
2022-12-14T19:38:49.757Z,96905.22
2022-12-14T19:41:21.810Z,96903.41
2022-12-14T19:43:57.611Z,96901.63
2022-12-14T19:46:29.803Z,96917.19
2022-12-14T19:49:02.886Z,96915.31
2022-12-14T19:51:34.807Z,96914.00
2022-12-14T19:54:07.286Z,96902.06
2022-12-14T19:56:40.290Z,96894.25
2022-12-14T19:59:12.687Z,96908.16
2022-12-14T20:01:47.997Z,96909.88
2022-12-14T20:04:21.082Z,96914.44
2022-12-14T20:06:53.179Z,96917.75
2022-12-14T20:09:25.566Z,96921.44
2022-12-14T20:11:58.059Z,96934.38
2022-12-14T20:14:30.600Z,96944.59
2022-12-14T20:17:02.496Z,96943.19
2022-12-14T20:19:35.998Z,96948.50
2022-12-14T20:22:08.803Z,96951.16
2022-12-14T20:24:42.698Z,96936.78
2022-12-14T20:27:15.910Z,96936.72
2022-12-14T20:29:48.389Z,96931.53
2022-12-14T20:32:20.708Z,96923.72
2022-12-14T20:34:53.208Z,96923.13
2022-12-14T20:37:25.196Z,96929.03
2022-12-14T20:39:57.678Z,96935.44
2022-12-14T20:42:29.617Z,96952.25
2022-12-14T20:45:06.899Z,96961.97
2022-12-14T20:47:39.568Z,96970.97
2022-12-14T20:50:12.265Z,96974.25
2022-12-14T20:52:44.429Z,96968.94
2022-12-14T20:55:16.887Z,96969.03
2022-12-14T20:57:48.807Z,96954.66
2022-12-14T21:00:22.040Z,96963.16
2022-12-14T21:02:54.250Z,96972.16
2022-12-14T21:05:26.838Z,96965.00
2022-12-14T21:07:58.735Z,96970.03
2022-12-14T21:10:31.205Z,96965.59
2022-12-14T21:13:07.610Z,96960.34
2022-12-14T21:15:40.381Z,96952.53
2022-12-14T21:18:12.376Z,96945.97
2022-12-14T21:20:44.817Z,96962.00
2022-12-14T21:23:21.460Z,96950.38
2022-12-14T21:25:53.897Z,96944.53
2022-12-14T21:28:31.812Z,96947.88
2022-12-14T21:31:07.279Z,96949.78
2022-12-14T21:33:39.175Z,96950.94
2022-12-14T21:36:12.723Z,96954.09
2022-12-14T21:38:44.689Z,96959.28
2022-12-14T21:41:39.979Z,96958.56
2022-12-14T21:49:16.281Z,96962.00
2022-12-14T21:51:49.588Z,96943.91
2022-12-14T21:54:24.141Z,96954.97
2022-12-14T21:57:14.925Z,96955.56
2022-12-14T21:59:46.910Z,96925.19
2022-12-14T22:02:24.154Z,96956.78
2022-12-14T22:04:56.475Z,96958.47
2022-12-14T22:07:34.026Z,96955.97
2022-12-14T22:12:38.723Z,96974.91
2022-12-14T22:15:10.836Z,96974.28
2022-12-14T22:17:43.739Z,96978.72
2022-12-14T22:20:15.704Z,96987.97
2022-12-14T22:22:48.143Z,96991.09
2022-12-14T22:25:20.030Z,96994.94
2022-12-14T22:27:52.765Z,96991.25
2022-12-14T22:30:29.933Z,96999.81
2022-12-14T22:33:04.037Z,96999.56
2022-12-14T22:35:36.139Z,97008.81
2022-12-14T22:38:08.608Z,97003.44
2022-12-14T22:40:40.541Z,97014.47
2022-12-14T22:43:13.164Z,97017.06
2022-12-14T22:45:45.551Z,97008.19
2022-12-14T22:48:17.999Z,97013.03
2022-12-14T22:50:49.951Z,97019.41
2022-12-14T22:53:22.384Z,97023.63
2022-12-14T22:55:57.784Z,97027.38
2022-12-14T22:58:30.482Z,97026.59
2022-12-14T23:01:02.732Z,97027.91
2022-12-14T23:03:36.901Z,97037.63
2022-12-14T23:06:15.597Z,97021.16
2022-12-14T23:09:08.653Z,97034.66
2022-12-14T23:11:59.265Z,97035.84
2022-12-14T23:14:50.058Z,97036.53
2022-12-14T23:17:40.519Z,97036.44
2022-12-14T23:20:31.585Z,97041.50
2022-12-14T23:23:25.551Z,97045.06
2022-12-14T23:26:21.281Z,97044.38
2022-12-14T23:29:11.744Z,97058.00
2022-12-14T23:32:02.586Z,97052.00
2022-12-14T23:34:52.876Z,97060.09
2022-12-14T23:37:43.754Z,97060.66
2022-12-14T23:40:34.535Z,97066.00
2022-12-14T23:43:31.497Z,97070.50
2022-12-14T23:46:23.699Z,97069.13
2022-12-14T23:49:16.141Z,97074.31
2022-12-14T23:52:07.055Z,97069.13
2022-12-14T23:54:58.033Z,97074.34
2022-12-14T23:57:48.553Z,97073.81
